Strona główna
METAR-TAF:

METAR-TAF

Lotnisko :

Baker Municipal Airport

Baker, Montana, Stany Zjednoczone

Szerokość geograficzna: 46-20-52N, Długość geograficzna: 104-15-27W, wysokość: 905 m

Aktualna obserwacja pogody

Raport powstał 58 minut temu, godzina 00:51 UTC
Wiatr 5 kt od wschodnio-południowy wschód
Temperatura 24°C
Wilgotność 36%
Ciśnienie 1011 hPa
Widzialność: 16.1 km
Mało chmury na wysokości 10000 ft

METAR: KBHK 260051Z AUTO 11005KT 10SM FEW100 24/08 A2985 RMK AO2 SLP093 T02390078

czas: 19:49 (01:49 UTC)


TAF: brakujący

Obserwacja i prognoza pogody dla ponad 4000 lotnisk (raport METAR i TAF).

Dostępne stacje oznaczono żółtymi i czerwonymi punktami na mapie.

Najedź kursorem aby zobaczyć nazwę stacji.

Kliknij aby zobaczyć obserwacje i prognozy pogody.

Aby zmienić mapę: kliknij na zielony przycisk z czarnym krzyżykiem, aby powiększyć; na zielony przycisk z myślnikiem, aby pomniejszyć; na zielone strzałki, aby przejść do map sąsiednich.


METAR-TAF: